x

East Lake Ontario - 20nm North Northeast Of Rochester, Ny (45012) Wave Buoy

9:50am - Sat 29th Aug 2015 All times are CDT. -5 hours from GMT.

  • Sig Wave height 0.7ft
  • Average Period 3s
  • Wind
    9mph
  • Sea Temp 69°f
  • Air Temp 67°f
  • Sea Pressure 1021.1mb
  • East Lake Ontario  - 20nm North Northeast Of Rochester, Ny
  • East Lake Ontario  - 20nm North Northeast Of Rochester, Ny

More Historic Weather Station data

Upgrade to MSW Pro to gain access to the past 30 days of data for over 8000 Wavebouys and Weather Stations around the globe.

Join Pro

Comparision Forecast

View Surf forecast
   
Sat 08/29 9:50am 0.7ft  -  3s 9
mph
1021.1mb 69f 67f
8:50am 0.7ft  -  3s 7
mph
1021mb 69f 67f
7:50am 0.7ft  -  3s 7
mph
1021.2mb 69f 66f
6:50am 0.7ft  -  3s 7 9 mph 1021.3mb 69f 67f
5:50am 0.7ft  -  3s 9 11 mph 1020.5mb 69f 67f
4:50am 1ft 3s 3s 11 13 mph 1020.3mb 69f 68f
3:50am 1ft 3s 3s 9
mph
1020.5mb 70f 68f
2:50am 1ft 3s 3s 11
mph
1020.3mb 70f 68f
1:50am 0.7ft  -  3s 11 13 mph 1020.7mb 70f 67f
12:50am 0.7ft  -  3s 11 13 mph 1021.1mb 70f 68f
Fri 08/28 11:50pm  -   -  4s 11 13 mph 1021.6mb 70f 69f
10:50pm 0.3ft  -  5s 9 11 mph 1021.6mb 70f 68f
9:50pm  -   -  3s 7 9 mph 1021.7mb 70f 68f
8:50pm  -   -   -  4 7 mph 1022mb 71f 68f
7:50pm  -   -  3s 4 7 mph 1021.8mb 71f 68f
6:50pm  -   -  3s  -  2 mph 1021.8mb 72f 67f
5:50pm  -   -  3s  -  2 mph 1021.4mb 72f 69f
4:50pm  -   -  3s  -  mph 1021.2mb 72f 70f
3:50pm 0.3ft  -  3s 4 7 mph 1021.6mb 72f 67f
2:50pm  -   -  3s 4
mph
1022.2mb 72f 67f
1:50pm 0.3ft  -  3s 4 7 mph 1022.5mb 72f 67f
12:50pm 0.3ft  -  3s 4 7 mph 1022.8mb 72f 66f
11:50am 0.3ft  -  3s 2 4 mph 1022.8mb 71f 66f
10:50am 0.3ft  -  3s  -  2 mph 1023.4mb 70f 66f
9:50am 0.3ft  -  3s 2 4 mph 1023.4mb 69f 65f
8:50am 0.7ft  -  3s 2 4 mph 1023.3mb 69f 64f
7:50am 0.7ft  -  3s 4
mph
1023.1mb 69f 64f
6:50am 0.7ft  -  3s 4 7 mph 1022.6mb 69f 64f
5:50am 1ft 3s 3s 7 9 mph 1022.1mb 69f 64f
4:50am 1ft 4s 3s 11
mph
1021.6mb 69f 64f
3:50am 1ft 4s 3s 9 11 mph 1021.1mb 69f 64f
2:50am 1.3ft 4s 3s 9 11 mph 1021.2mb 69f 65f
1:50am 1.3ft 4s 3s 11 13 mph 1021mb 69f 65f
12:50am 1.6ft 4s 3s 11 13 mph 1021.2mb 70f 66f
Thu 08/27 11:50pm 1.6ft 3s 3s 13 16 mph 1020.9mb 70f 66f
10:50pm 1.6ft 4s 3s 13 18 mph 1020.6mb 70f 67f
9:50pm 1.6ft 3s 3s 16 18 mph 1020.6mb 70f 67f
8:50pm 1.3ft 3s 3s 13 18 mph 1020.6mb 70f 67f
7:50pm 1.3ft 4s 3s 13 16 mph 1020.5mb 70f 67f
6:50pm 1.3ft 4s 3s 11 13 mph 1019.9mb 70f 67f
5:50pm 1.6ft 4s 3s 11 16 mph 1019.9mb 70f 66f
4:50pm 2ft 4s 3s 13 16 mph 1019.6mb 70f 66f
3:50pm 2ft 4s 4s 11 13 mph 1019.4mb 70f 66f
2:50pm 2ft 5s 4s 13 16 mph 1019.3mb 70f 65f
1:50pm 2.5ft 5s 4s 13 16 mph 1019.9mb 70f 65f
12:50pm 2.5ft 5s 4s 16 18 mph 1020mb 70f 64f
11:50am 2.5ft 5s 4s 11 16 mph 1020mb 70f 64f
10:50am 2.5ft 5s 4s 13 18 mph 1019.8mb 70f 64f
9:50am 2.5ft 5s 4s 13 18 mph 1019.5mb 69f 63f
8:50am 2.5ft 5s 4s 16 18 mph 1019mb 69f 63f
7:50am 2.5ft 5s 4s 16 18 mph 1018.7mb 69f 63f
6:50am 2.5ft 5s 4s 13 18 mph 1018.3mb 69f 63f
5:50am 2.5ft 4s 4s 16 20 mph 1017.6mb 69f 63f
4:50am 2.5ft 5s 4s 18 20 mph 1017.2mb 70f 63f
3:50am 2.5ft 5s 4s 18 20 mph 1017mb 70f 63f
2:50am 2.5ft 5s 4s 18 20 mph 1016.8mb 70f 64f
1:50am 3ft 5s 4s 18 20 mph 1016.9mb 70f 64f
12:50am 3ft 5s 4s 16 20 mph 1017.2mb 70f 64f
Wed 08/26 11:50pm 4ft 5s 4s 18 22 mph 1017mb 70f 64f
10:50pm 3.5ft 5s 4s 20 25 mph 1016.6mb 70f 65f
9:50pm 3.5ft 5s 4s 20 22 mph 1016.3mb 70f 66f
8:50pm 4ft 6s 4s 16 20 mph 1016mb 70f 67f
7:50pm 3.5ft 5s 4s 18 22 mph 1015.6mb 70f 67f
6:50pm 3.5ft 5s 4s 22 25 mph 1015.1mb 70f 68f
5:50pm 3ft 5s 4s 18 22 mph 1015.2mb 71f 68f
4:50pm 2.5ft 5s 4s 16 18 mph 1015.2mb 71f 67f
3:50pm 2.5ft 4s 4s 20 22 mph 1015.3mb 70f 67f
2:50pm 2ft 4s 3s 18 22 mph 1015.5mb 70f 66f
1:50pm 2.5ft 4s 3s 18 20 mph 1015.7mb 70f 66f
12:50pm 2ft 4s 3s 18 20 mph 1015.8mb 70f 65f
11:50am 2.5ft 4s 3s 16 20 mph 1015.9mb 70f 65f
10:50am 2.5ft 4s 3s 16 20 mph 1016.1mb 70f 65f
9:50am 2.5ft 4s 3s 16 18 mph 1015.9mb 70f 65f
8:50am 2.5ft 4s 4s 18 22 mph 1015.5mb 70f 65f
7:50am 2.5ft 4s 4s 16 20 mph 1015.1mb 70f 65f
6:50am 2.5ft 4s 4s 13 18 mph 1014.8mb 70f 65f
5:50am 2.5ft 4s 4s 13 16 mph 1014.3mb 70f 65f
4:50am 2.5ft 4s 4s 16 18 mph 1013.7mb 70f 65f
3:50am 2ft 4s 4s 16 20 mph 1013.6mb 70f 65f
2:50am 1.6ft 5s 4s 11 13 mph 1013.5mb 70f 64f
1:50am 1.6ft 5s 4s 7 11 mph 1013.6mb 70f 65f
12:50am 2ft 4s 4s 7 13 mph 1013.8mb 70f 65f
Tue 08/25 11:50pm 2ft 4s 4s 11 13 mph 1014mb 70f 64f
10:50pm 2.5ft 4s 3s 18 20 mph 1013.6mb 70f 67f
8:50pm 1.6ft 4s 3s 16 18 mph 1013.5mb 70f 67f
7:50pm 1ft 4s 3s 13 18 mph 1013.3mb 70f 67f
6:50pm 1.3ft 4s 3s 9 13 mph 1013.1mb 70f 67f
5:50pm 1.6ft 4s 3s 9 11 mph 1012.8mb 71f 67f
4:50pm 1.6ft 5s 4s 4 7 mph 1012.7mb 71f 67f
3:50pm 2ft 5s 4s 7 9 mph 1012.6mb 70f 67f